Nearby METAR Reports

 

KIAG - Niagara Falls, New York, USA
Distance from station: W 12mi, 20km
Updated: 10/22/2021 4:53pm
Few Clouds
Few Clouds
 Wind from varies
Wind: varies 3 mph , 6 km/h
Temperature: 48°F , 9°C
Dew Point: 34°F , 1°C
Humidity: 58%
Barometer: 1015.6 hPa
Clouds: Few Clouds
Visibility: 10 miles , 16 km
Cloud details: Few Clouds 3600 ft
2021/10/22 20:53 KIAG 222053Z VRB03KT 10SM FEW036 09/01 A2999 RMK AO2 SLP163 T00940006 56003
KBUF - Buffalo/Cheektow, New York, USA
Distance from station: S 13mi, 21km
Updated: 10/22/2021 4:54pm
Mostly cloudy
Mostly cloudy
 Wind from NNW
Wind: NNW 6 mph , 9 km/h
Temperature: 50°F , 10°C
Wind Chill: 48°F , 9°C
Dew Point: 36°F , 2°C
Humidity: 58%
Barometer: 1015.6 hPa
Clouds: Mostly cloudy
Visibility: 10 miles , 16 km
Cloud details: Partly cloudy 3600 ft
Partly cloudy 21000 ft
Mostly cloudy 26000 ft
2021/10/22 20:54 KBUF 222054Z 33005KT 10SM SCT036 SCT210 BKN260 10/02 A2999 RMK AO2 SLP160 T01000017 56002
 
KROC - Rochester, New York, USA
Distance from station: E 51mi, 82km
Updated: 10/22/2021 4:54pm
Mostly cloudy
Mostly cloudy
 Wind from NNW
Wind: NNW 6 mph , 9 km/h
Temperature: 48°F , 9°C
Wind Chill: 45°F , 7°C
Dew Point: 36°F , 2°C
Humidity: 62%
Barometer: 1016.3 hPa
Clouds: Mostly cloudy
Visibility: 10 miles , 16 km
Cloud details: Mostly cloudy 3500 ft
Mostly cloudy 18000 ft
2021/10/22 20:54 KROC 222054Z 34005KT 10SM BKN035 BKN180 09/02 A3001 RMK AO2 SLP165 T00940017 53003
CYSN - St. Catharines A, Ontario, Canada
Distance from station: WNW 25mi, 40km
Updated: 10/22/2021 5:00pm
Mostly cloudy
Mostly cloudy
 Wind from NNE
Wind: NNE 5 mph , 7 km/h
Temperature: 46°F , 8°C
Wind Chill: 44°F , 7°C
Dew Point: 34°F , 1°C
Humidity: 62%
Barometer: 1015.6 hPa
Clouds: Mostly cloudy
Visibility: 15 miles , 24 km
Cloud details: Few Clouds 3600 ft
Mostly cloudy 16000 ft
2021/10/22 21:00 CYSN 222100Z 03004KT 15SM FEW036 BKN160 08/01 A2999 RMK SC2AC3 SLP160
 
KOLE - Olean, New York, USA
Distance from station: SSE 63mi, 102km
Updated: 10/17/2021 12:01am
NOT Current
Overcast
Overcast
 Wind from calm
Wind: Calm
Temperature: 45°F , 7°C
Dew Point: 45°F , 7°C
Humidity: 100%
Barometer: 1011.2 hPa
Clouds: Overcast
Visibility: 10 miles , 16 km
Cloud details: Partly cloudy 1800 ft
Mostly cloudy 5500 ft
Overcast 6500 ft
2021/10/17 04:01 KOLE 170401Z 00000KT 10SM SCT018 BKN055 OVC065 07/07 A2986
KJHW - Jamestown, New York, USA
Distance from station: SSW 74mi, 119km
Updated: 10/22/2021 4:56pm
Mostly cloudy
Mostly cloudy
 Wind from NW
Wind: NW 6 mph , 9 km/h
Temperature: 45°F , 7°C
Wind Chill: 42°F , 6°C
Dew Point: 37°F , 3°C
Humidity: 76%
Barometer: 1015.2 hPa
Clouds: Mostly cloudy
Visibility: 10 miles , 16 km
Cloud details: Mostly cloudy 3500 ft
2021/10/22 20:56 KJHW 222056Z AUTO 32005KT 10SM BKN035 07/03 A2998 RMK AO2 SLP163 T00720028 58002
 
CWWZ - Port Weller (mar, Ontario, Canada
Distance from station: WNW 28mi, 45km
Updated: 10/22/2021 5:00pm

 Wind from NNE
Wind: NNE 5 mph , 7 km/h
Temperature: 48°F , 9°C
Wind Chill: 46°F , 8°C
Dew Point: 36°F , 2°C
Humidity: 62%
2021/10/22 21:00 CWWZ 222100Z AUTO 03004KT 09/02 RMK AO1 SLP165 T00890018 58005
CWPC - Port Colborne(Au, Ontario, Canada
Distance from station: WSW 33mi, 53km
Updated: 10/22/2021 5:00pm

 Wind from SW
Wind: SW 6 mph , 9 km/h
Temperature: 48°F , 9°C
Wind Chill: 45°F , 7°C
Dew Point: 36°F , 2°C
Humidity: 62%
2021/10/22 21:00 CWPC 222100Z AUTO 22005KT 09/02 RMK AO1 SLP168 T00910015 58004
 
CXVN - Vineland (au8), Ontario, Canada
Distance from station: W 36mi, 58km
Updated: 10/22/2021 5:00pm

 Wind from E
Wind: E 1 mph , 2 km/h
Temperature: 48°F , 9°C
Dew Point: 34°F , 1°C
Humidity: 58%
2021/10/22 21:00 CXVN 222100Z AUTO 09001KT 09/01 RMK AO1 SLP156 T00920014 56005
CYTZ - Toronto Il Vor, Ontario, Canada
Distance from station: NW 50mi, 81km
Updated: 10/22/2021 5:00pm
Overcast
Overcast
 Wind from SSW
Wind: SSW 6 mph , 9 km/h
Temperature: 48°F , 9°C
Wind Chill: 45°F , 7°C
Dew Point: 37°F , 3°C
Humidity: 66%
Barometer: 1015.6 hPa
Clouds: Overcast
Visibility: 9 miles , 14 km
Cloud details: Overcast 4100 ft
2021/10/22 21:00 CYTZ 222100Z AUTO 20005KT 150V210 9SM OVC041 09/03 A2999 RMK SLP160
 
CXTO - Toronto City, Ontario, Canada
Distance from station: NW 52mi, 84km
Updated: 10/22/2021 5:00pm

 
Temperature: 48°F , 9°C
Dew Point: 34°F , 1°C
Humidity: 58%
2021/10/22 21:00 CXTO 222100Z AUTO 09/01 RMK AO1 SLP159 T00910009 56006
KDKK - Dunkirk, New York, USA
Distance from station: SW 52mi, 84km
Updated: 10/22/2021 4:53pm
Overcast
Overcast
 Wind from calm
Wind: Calm
Temperature: 48°F , 9°C
Dew Point: 37°F , 3°C
Humidity: 66%
Barometer: 1015.9 hPa
Clouds: Overcast
Visibility: 10 miles , 16 km
Cloud details: Mostly cloudy 3000 ft
Overcast 3800 ft
2021/10/22 20:53 KDKK 222053Z AUTO 00000KT 10SM BKN030 OVC038 09/03 A3000 RMK AO2 SLP161 T00940033 58003
 
CYOO - Oshawa, Ontario, Canada
Distance from station: N 56mi, 90km
Updated: 10/22/2021 5:00pm
Clear
Clear
 Wind from NW
Wind: NW 9 mph , 15 km/h
Temperature: 46°F , 8°C
Wind Chill: 41°F , 5°C
Dew Point: 30°F , -1°C
Humidity: 53%
Barometer: 1015.6 hPa
Clouds: Clear
Visibility: 9 miles , 14 km
2021/10/22 21:00 CYOO 222100Z AUTO 32008KT 9SM CLR 08/M01 A2999 RMK SLP161
CWWB - Burlington Piers, Ontario, Canada
Distance from station: WNW 56mi, 91km
Updated: 10/22/2021 5:00pm

 Wind from SSW
Wind: SSW 5 mph , 7 km/h
Temperature: 50°F , 10°C
Wind Chill: 48°F , 9°C
Dew Point: 32°F , 0°C
Humidity: 50%
2021/10/22 21:00 CWWB 222100Z AUTO 20004KT 10/M00 RMK AO1 SLP161 T00991002 55005
 
CYYZ - Toronto/Pearson, Ontario, Canada
Distance from station: NW 60mi, 96km
Updated: 10/22/2021 5:00pm
Mostly cloudy
Mostly cloudy
 Wind from varies
Wind: varies 2 mph , 4 km/h
Temperature: 46°F , 8°C
Dew Point: 34°F , 1°C
Humidity: 62%
Barometer: 1015.6 hPa
Clouds: Mostly cloudy
Visibility: 15 miles , 24 km
Cloud details: Partly cloudy 3500 ft
Mostly cloudy 22000 ft
2021/10/22 21:00 CYYZ 222100Z VRB02KT 15SM SCT035 BKN220 08/01 A2999 RMK SC4CI3 SLP160
CYKZ - Toronto Buttonvi, Ontario, Canada
Distance from station: NW 62mi, 99km
Updated: 01/03/2019 4:00am
NOT Current
Partly cloudy
Partly cloudy
 Wind from WSW
Wind: WSW 5 mph , 7 km/h
Temperature: 27°F , -3°C
Wind Chill: 21°F , -6°C
Dew Point: 23°F , -5°C
Humidity: 86%
Barometer: 1010.8 hPa
Clouds: Partly cloudy
Visibility: 15 miles , 24 km
Cloud details: Partly cloudy 4000 ft
2019/01/03 09:00 CYKZ 030900Z 25004KT 15SM SCT040 M03/M05 A2985 RMK SC3 LAST STFD OBS FAREWELL SLP118
 
CXHM - Hamilton Rbg Cs, Ontario, Canada
Distance from station: W 62mi, 100km
Updated: 10/22/2021 5:00pm

 Wind from W
Wind: W 2 mph , 4 km/h
Temperature: 48°F , 9°C
Dew Point: 34°F , 1°C
Humidity: 58%
2021/10/22 21:00 CXHM 222100Z AUTO 26002KT 09/01 RMK AO1 SLP164 T00920013 55004
KDSV - Dansville, New York, USA
Distance from station: SE 62mi, 100km
Updated: 10/22/2021 4:54pm
Overcast
Overcast
 Wind from NNW
Wind: NNW 10 mph , 17 km/h
Temperature: 54°F , 12°C
Dew Point: 37°F , 3°C
Humidity: 54%
Barometer: 1015.6 hPa
Clouds: Overcast
Visibility: 10 miles , 16 km
Cloud details: Overcast 4700 ft
2021/10/22 20:54 KDSV 222054Z AUTO 33009KT 10SM OVC047 12/03 A2999 RMK AO2 SLP164 T01170033 53002
 
CYHM - Hamilton Airport, Ontario, Canada
Distance from station: W 63mi, 101km
Updated: 10/22/2021 5:00pm
Mostly cloudy
Mostly cloudy
 Wind from NW
Wind: NW 7 mph , 11 km/h
Temperature: 46°F , 8°C
Wind Chill: 42°F , 6°C
Dew Point: 34°F , 1°C
Humidity: 62%
Barometer: 1015.6 hPa
Clouds: Mostly cloudy
Visibility: 15 miles , 24 km
Cloud details: Partly cloudy 3600 ft
Mostly cloudy 27000 ft
2021/10/22 21:00 CYHM 222100Z 32006KT 15SM SCT036 BKN270 08/01 A2999 RMK CU3CS4 SLP161
CWNC - Cobourg (mars), Ontario, Canada
Distance from station: NNE 63mi, 102km
Updated: 10/22/2021 5:00pm

 Wind from NW
Wind: NW 5 mph , 7 km/h
Temperature: 46°F , 8°C
Wind Chill: 44°F , 7°C
Dew Point: 30°F , -1°C
Humidity: 53%
2021/10/22 21:00 CWNC 222100Z AUTO 32004KT 08/M01 RMK AO1 SLP159 T00751012 53004